Time;durP1;ratioP1;P1;durP2;ratioP2;P2;SDS_P1;SDS_P2;PMS_P1;PMS_P2;Temp;Humidity;BMP_temperature;BMP_pressure;BME280_temperature;BME280_humidity;BME280_pressure;Samples;Min_cycle;Max_cycle;Signal;HPM_P1;HPM_P2
2022/01/24 00:02:10;;;;;;;0.00;0.00;;;;;;;;;;5067995;28;20116;-66
2022/01/24 00:04:37;;;;;;;0.00;0.00;;;;;;;;;;5067679;28;20033;-65
2022/01/24 00:07:04;;;;;;;0.00;0.00;;;;;;;;;;5066168;28;20082;-65
2022/01/24 00:09:29;;;;;;;0.00;0.00;;;;;;;;;;5068502;28;20392;-65
2022/01/24 00:17:11;;;;;;;0.00;0.00;;;;;;;;;;5070232;28;20431;-65
2022/01/24 00:27:59;;;;;;;0.00;0.00;;;;;;;;;;5071357;28;20028;-66
2022/01/24 00:30:24;;;;;;;0.00;0.00;;;;;;;;;;5071584;28;20024;-65
2022/01/24 00:32:49;;;;;;;0.00;0.00;;;;;;;;;;5071335;28;20027;-66
2022/01/24 00:35:15;;;;;;;0.00;0.00;;;;;;;;;;5070156;28;20021;-65
2022/01/24 00:37:40;;;;;;;0.00;0.00;;;;;;;;;;5069571;28;20872;-65
2022/01/24 00:40:06;;;;;;;0.00;0.00;;;;;;;;;;5070578;28;20060;-65
2022/01/24 00:47:42;;;;;;;0.00;0.00;;;;;;;;;;5070858;28;20017;-64
2022/01/24 00:55:16;;;;;;;0.00;0.00;;;;;;;;;;5071276;28;20042;-63
2022/01/24 00:57:41;;;;;;;0.00;0.00;;;;;;;;;;5070937;28;20025;-63
2022/01/24 01:00:07;;;;;;;0.00;0.00;;;;;;;;;;5069620;28;20025;-64
2022/01/24 01:02:32;;;;;;;0.00;0.00;;;;;;;;;;5069518;28;20112;-63
2022/01/24 01:05:07;;;;;;;0.00;0.00;;;;;;;;;;5068613;28;20062;-64
2022/01/24 01:23:12;;;;;;;0.00;0.00;;;;;;;;;;5069173;28;20473;-66
2022/01/24 01:25:39;;;;;;;0.00;0.00;;;;;;;;;;5068636;28;20020;-63
2022/01/24 01:28:04;;;;;;;0.00;0.00;;;;;;;;;;5068745;28;20032;-64
2022/01/24 01:30:38;;;;;;;0.00;0.00;;;;;;;;;;5069299;28;20033;-64
2022/01/24 01:57:15;;;;;;;0.00;0.00;;;;;;;;;;5069841;28;20024;-64
2022/01/24 01:59:41;;;;;;;0.00;0.00;;;;;;;;;;5069792;28;20035;-65
2022/01/24 02:02:06;;;;;;;0.32;0.32;;;;;;;;;;5069302;28;20388;-65
2022/01/24 02:04:31;;;;;;;0.00;0.00;;;;;;;;;;5069788;28;20025;-66
2022/01/24 02:06:57;;;;;;;0.00;0.00;;;;;;;;;;5069208;28;20024;-66
2022/01/24 02:09:27;;;;;;;0.00;0.00;;;;;;;;;;5068890;28;20058;-65
2022/01/24 02:11:53;;;;;;;0.00;0.00;;;;;;;;;;5068279;28;20094;-63
2022/01/24 02:14:20;;;;;;;0.00;0.00;;;;;;;;;;5069797;28;20024;-63
2022/01/24 02:16:55;;;;;;;0.00;0.00;;;;;;;;;;5069240;28;20021;-63
2022/01/24 02:20:07;;;;;;;0.00;0.00;;;;;;;;;;5069662;28;20035;-64
2022/01/24 02:22:41;;;;;;;0.00;0.00;;;;;;;;;;5066803;28;20423;-65
2022/01/24 02:25:11;;;;;;;0.00;0.00;;;;;;;;;;5068719;28;20028;-64
2022/01/24 02:27:46;;;;;;;0.00;0.00;;;;;;;;;;5066896;28;20024;-64
2022/01/24 02:30:37;;;;;;;0.00;0.00;;;;;;;;;;5066825;28;20136;-64
2022/01/24 02:33:00;;;;;;;0.00;0.00;;;;;;;;;;5068582;28;20021;-64
2022/01/24 02:35:25;;;;;;;0.00;0.00;;;;;;;;;;5068594;28;20012;-64
2022/01/24 02:37:50;;;;;;;0.00;0.00;;;;;;;;;;5067160;28;20028;-64
2022/01/24 02:40:18;;;;;;;0.00;0.00;;;;;;;;;;5068346;28;20047;-63
2022/01/24 02:53:24;;;;;;;0.00;0.00;;;;;;;;;;5064826;28;20424;-63
2022/01/24 02:55:49;;;;;;;0.00;0.00;;;;;;;;;;5065309;28;20108;-63
2022/01/24 02:58:16;;;;;;;0.00;0.00;;;;;;;;;;5065622;28;20116;-63
2022/01/24 03:00:42;;;;;;;0.00;0.00;;;;;;;;;;5062970;28;20155;-63
2022/01/24 03:03:07;;;;;;;0.00;0.00;;;;;;;;;;5063255;28;20565;-61
2022/01/24 03:05:32;;;;;;;0.00;0.00;;;;;;;;;;5067113;28;20032;-62
2022/01/24 03:07:58;;;;;;;0.00;0.00;;;;;;;;;;5066004;28;20045;-63
2022/01/24 03:10:34;;;;;;;0.00;0.00;;;;;;;;;;5065292;28;20631;-63
2022/01/24 03:13:17;;;;;;;0.00;0.00;;;;;;;;;;5063476;28;20020;-64
2022/01/24 03:15:42;;;;;;;0.00;0.00;;;;;;;;;;5063331;28;20054;-64
2022/01/24 03:18:08;;;;;;;0.00;0.00;;;;;;;;;;5062300;28;20081;-63
2022/01/24 03:20:33;;;;;;;0.00;0.00;;;;;;;;;;5068445;28;20590;-63
2022/01/24 03:22:59;;;;;;;0.00;0.00;;;;;;;;;;5065025;28;20017;-63
2022/01/24 03:25:24;;;;;;;0.00;0.00;;;;;;;;;;5065284;28;20032;-64
2022/01/24 03:27:50;;;;;;;0.00;0.00;;;;;;;;;;5065809;28;20469;-63
2022/01/24 03:30:15;;;;;;;0.00;0.00;;;;;;;;;;5064494;28;20032;-64
2022/01/24 03:32:40;;;;;;;0.00;0.00;;;;;;;;;;5064246;28;20117;-64
2022/01/24 03:35:07;;;;;;;0.00;0.00;;;;;;;;;;5065521;28;20499;-64
2022/01/24 03:37:33;;;;;;;0.00;0.00;;;;;;;;;;5065889;28;20472;-64
2022/01/24 03:39:59;;;;;;;0.00;0.00;;;;;;;;;;5063398;28;20029;-64
2022/01/24 03:42:24;;;;;;;0.00;0.00;;;;;;;;;;5062987;28;20088;-64
2022/01/24 03:44:55;;;;;;;0.00;0.00;;;;;;;;;;5063512;28;20025;-64
2022/01/24 03:50:05;;;;;;;0.00;0.00;;;;;;;;;;5067629;28;20044;-64
2022/01/24 03:52:30;;;;;;;0.00;0.00;;;;;;;;;;5069990;28;20040;-64
2022/01/24 03:54:56;;;;;;;0.00;0.00;;;;;;;;;;5070521;28;20041;-64
2022/01/24 03:57:21;;;;;;;0.00;0.00;;;;;;;;;;5068936;28;20029;-63
2022/01/24 03:59:46;;;;;;;0.03;0.03;;;;;;;;;;5072159;28;20029;-64
2022/01/24 04:02:12;;;;;;;0.00;0.00;;;;;;;;;;5071919;28;20111;-64
2022/01/24 04:04:38;;;;;;;0.00;0.00;;;;;;;;;;5071242;28;20059;-64
2022/01/24 04:07:03;;;;;;;0.00;0.00;;;;;;;;;;5070729;28;20166;-62
2022/01/24 04:09:29;;;;;;;0.00;0.00;;;;;;;;;;5071320;28;20024;-64
2022/01/24 04:11:57;;;;;;;0.00;0.00;;;;;;;;;;5071659;28;20016;-63
2022/01/24 04:14:40;;;;;;;1.10;1.10;;;;;;;;;;5070277;28;20384;-64
2022/01/24 04:22:12;;;;;;;0.00;0.00;;;;;;;;;;5068252;28;20029;-63
2022/01/24 04:24:38;;;;;;;0.00;0.00;;;;;;;;;;5071626;28;20484;-65
2022/01/24 04:27:04;;;;;;;0.00;0.00;;;;;;;;;;5071502;28;20103;-65
2022/01/24 04:29:29;;;;;;;0.00;0.00;;;;;;;;;;5072012;28;20058;-65
2022/01/24 04:31:54;;;;;;;0.00;0.00;;;;;;;;;;5071701;28;20025;-63
2022/01/24 04:34:19;;;;;;;0.00;0.00;;;;;;;;;;5071654;28;20024;-63
2022/01/24 04:36:45;;;;;;;0.00;0.00;;;;;;;;;;5070687;28;20024;-64
2022/01/24 04:39:10;;;;;;;0.00;0.00;;;;;;;;;;5070741;28;20059;-63
2022/01/24 04:41:39;;;;;;;0.00;0.00;;;;;;;;;;5070128;28;20389;-63
2022/01/24 04:54:44;;;;;;;0.00;0.00;;;;;;;;;;5071134;28;20496;-64
2022/01/24 04:57:13;;;;;;;0.00;0.00;;;;;;;;;;5069874;28;20741;-63
2022/01/24 04:59:39;;;;;;;0.00;0.00;;;;;;;;;;5071329;28;20078;-63
2022/01/24 05:02:05;;;;;;;0.00;0.00;;;;;;;;;;5070574;28;20028;-64
2022/01/24 05:04:30;;;;;;;0.00;0.00;;;;;;;;;;5070182;28;20067;-63
2022/01/24 05:06:55;;;;;;;0.00;0.00;;;;;;;;;;5070931;28;20020;-64
2022/01/24 05:09:21;;;;;;;0.00;0.00;;;;;;;;;;5070013;28;20044;-63
2022/01/24 05:12:00;;;;;;;0.00;0.00;;;;;;;;;;5070342;28;20155;-64
2022/01/24 05:25:22;;;;;;;0.00;0.00;;;;;;;;;;5070219;28;20043;-64
2022/01/24 05:27:47;;;;;;;0.00;0.00;;;;;;;;;;5070862;28;20028;-63
2022/01/24 05:30:13;;;;;;;0.00;0.00;;;;;;;;;;5069705;28;20488;-65
2022/01/24 05:32:41;;;;;;;0.00;0.00;;;;;;;;;;5070535;28;20035;-65
2022/01/24 05:35:06;;;;;;;0.00;0.00;;;;;;;;;;5067635;28;20031;-65
2022/01/24 05:37:32;;;;;;;0.00;0.00;;;;;;;;;;5069000;28;20028;-64
2022/01/24 05:39:57;;;;;;;0.00;0.00;;;;;;;;;;5068909;28;20040;-64
2022/01/24 05:42:22;;;;;;;0.00;0.00;;;;;;;;;;5068740;28;20025;-64
2022/01/24 05:44:49;;;;;;;0.00;0.00;;;;;;;;;;5067489;28;20034;-63
2022/01/24 05:47:14;;;;;;;0.00;0.00;;;;;;;;;;5068187;28;20048;-63
2022/01/24 05:49:39;;;;;;;0.00;0.00;;;;;;;;;;5067534;28;20059;-66
2022/01/24 05:52:09;;;;;;;0.00;0.00;;;;;;;;;;5067450;28;20020;-66
2022/01/24 05:54:34;;;;;;;0.00;0.00;;;;;;;;;;5068152;28;20033;-65
2022/01/24 05:57:00;;;;;;;0.00;0.00;;;;;;;;;;5068898;28;20036;-67
2022/01/24 05:59:25;;;;;;;0.00;0.00;;;;;;;;;;5069777;28;20032;-66
2022/01/24 06:01:50;;;;;;;0.00;0.00;;;;;;;;;;5069988;28;20123;-67
2022/01/24 06:04:15;;;;;;;0.00;0.00;;;;;;;;;;5067010;28;20025;-64
2022/01/24 06:06:41;;;;;;;0.00;0.00;;;;;;;;;;5066238;28;20063;-63
2022/01/24 06:09:06;;;;;;;0.00;0.00;;;;;;;;;;5067534;28;20056;-65
2022/01/24 06:11:31;;;;;;;0.00;0.00;;;;;;;;;;5069375;28;20036;-64
2022/01/24 06:13:58;;;;;;;0.00;0.00;;;;;;;;;;5068344;28;20029;-64
2022/01/24 06:16:23;;;;;;;0.00;0.00;;;;;;;;;;5069150;28;20043;-63
2022/01/24 06:18:48;;;;;;;0.00;0.00;;;;;;;;;;5069315;28;20048;-64
2022/01/24 06:21:13;;;;;;;0.00;0.00;;;;;;;;;;5068932;28;20350;-62
2022/01/24 06:23:39;;;;;;;0.00;0.00;;;;;;;;;;5068871;28;20070;-63
2022/01/24 06:26:04;;;;;;;0.00;0.00;;;;;;;;;;5066071;28;20095;-62
2022/01/24 06:28:29;;;;;;;0.00;0.00;;;;;;;;;;5068431;28;20378;-63
2022/01/24 06:30:54;;;;;;;0.00;0.00;;;;;;;;;;5067794;28;20024;-62
2022/01/24 06:33:20;;;;;;;0.00;0.00;;;;;;;;;;5068387;28;20427;-64
2022/01/24 06:35:45;;;;;;;0.00;0.00;;;;;;;;;;5068861;28;20707;-63
2022/01/24 06:38:10;;;;;;;0.00;0.00;;;;;;;;;;5067655;28;20082;-62
2022/01/24 06:40:35;;;;;;;0.00;0.00;;;;;;;;;;5065417;28;20032;-62
2022/01/24 06:43:01;;;;;;;0.00;0.00;;;;;;;;;;5065331;28;20040;-62
2022/01/24 06:45:26;;;;;;;0.00;0.00;;;;;;;;;;5059440;28;21142;-62
2022/01/24 06:47:51;;;;;;;0.00;0.00;;;;;;;;;;5065776;28;20023;-63
2022/01/24 06:50:16;;;;;;;0.00;0.00;;;;;;;;;;5067723;28;20044;-63
2022/01/24 06:52:41;;;;;;;0.00;0.00;;;;;;;;;;5067096;28;20020;-64
2022/01/24 06:55:07;;;;;;;0.00;0.00;;;;;;;;;;5066775;28;20025;-62
2022/01/24 06:57:32;;;;;;;0.00;0.00;;;;;;;;;;5066453;28;20044;-62
2022/01/24 06:59:58;;;;;;;0.00;0.00;;;;;;;;;;5064340;28;20029;-62
2022/01/24 07:02:23;;;;;;;0.00;0.00;;;;;;;;;;5063059;28;20025;-62
2022/01/24 07:04:48;;;;;;;0.00;0.00;;;;;;;;;;5065899;28;20029;-64
2022/01/24 07:07:14;;;;;;;0.00;0.00;;;;;;;;;;5065398;28;20017;-63
2022/01/24 07:09:39;;;;;;;0.00;0.00;;;;;;;;;;5066845;28;20032;-64
2022/01/24 07:12:05;;;;;;;0.00;0.00;;;;;;;;;;5066478;28;20044;-63
2022/01/24 07:14:30;;;;;;;0.00;0.00;;;;;;;;;;5066371;28;20025;-62
2022/01/24 07:19:21;;;;;;;0.00;0.00;;;;;;;;;;5066595;28;20035;-64
2022/01/24 07:21:46;;;;;;;0.00;0.00;;;;;;;;;;5068174;28;20061;-64
2022/01/24 07:24:12;;;;;;;0.00;0.00;;;;;;;;;;5067206;28;20101;-64
2022/01/24 07:26:37;;;;;;;0.00;0.00;;;;;;;;;;5068550;28;20024;-63
2022/01/24 07:29:03;;;;;;;0.00;0.00;;;;;;;;;;5067236;28;20016;-64
2022/01/24 07:31:28;;;;;;;0.00;0.00;;;;;;;;;;5068427;28;20043;-64
2022/01/24 07:33:55;;;;;;;0.00;0.00;;;;;;;;;;5069063;28;20055;-64
2022/01/24 07:36:20;;;;;;;0.00;0.00;;;;;;;;;;5068118;28;20557;-64
2022/01/24 07:38:46;;;;;;;0.00;0.00;;;;;;;;;;5068069;28;20091;-64
2022/01/24 07:41:11;;;;;;;0.00;0.00;;;;;;;;;;5067817;28;20055;-64
2022/01/24 07:43:36;;;;;;;1.10;0.17;;;;;;;;;;5067974;28;20132;-65
2022/01/24 07:46:01;;;;;;;0.00;0.00;;;;;;;;;;5067769;28;20469;-64
2022/01/24 07:48:27;;;;;;;0.00;0.00;;;;;;;;;;5068294;28;20024;-64
2022/01/24 07:50:52;;;;;;;0.00;0.00;;;;;;;;;;5068383;28;20050;-64
2022/01/24 07:53:18;;;;;;;0.00;0.00;;;;;;;;;;5067839;28;20033;-65
2022/01/24 07:55:44;;;;;;;0.00;0.00;;;;;;;;;;5067875;28;20024;-64
2022/01/24 07:58:09;;;;;;;0.00;0.00;;;;;;;;;;5066864;28;20029;-65
2022/01/24 08:00:35;;;;;;;0.00;0.00;;;;;;;;;;5068057;28;20024;-64
2022/01/24 08:03:00;;;;;;;0.00;0.00;;;;;;;;;;5063420;28;20059;-63
2022/01/24 08:05:26;;;;;;;0.00;0.00;;;;;;;;;;5068086;28;20041;-64
2022/01/24 08:07:51;;;;;;;0.00;0.00;;;;;;;;;;5066431;28;20052;-65
2022/01/24 08:10:17;;;;;;;0.00;0.00;;;;;;;;;;5067515;28;20032;-65
2022/01/24 08:12:44;;;;;;;0.00;0.00;;;;;;;;;;5068150;28;20520;-63
2022/01/24 08:15:11;;;;;;;0.00;0.00;;;;;;;;;;5066811;28;20070;-64
2022/01/24 08:17:37;;;;;;;0.00;0.00;;;;;;;;;;5067575;28;20021;-64
2022/01/24 08:20:02;;;;;;;0.00;0.00;;;;;;;;;;5067530;28;20050;-63
2022/01/24 08:22:27;;;;;;;0.00;0.00;;;;;;;;;;5067886;28;20025;-64
2022/01/24 08:24:53;;;;;;;0.00;0.00;;;;;;;;;;5067583;28;20526;-64
2022/01/24 08:27:18;;;;;;;0.00;0.00;;;;;;;;;;5064909;28;20932;-64
2022/01/24 08:29:48;;;;;;;0.00;0.00;;;;;;;;;;5067693;28;20032;-64
2022/01/24 08:32:14;;;;;;;0.00;0.00;;;;;;;;;;5070726;28;20131;-65
2022/01/24 08:34:39;;;;;;;0.00;0.00;;;;;;;;;;5071625;28;20107;-64
2022/01/24 08:37:05;;;;;;;0.00;0.00;;;;;;;;;;5071047;28;20024;-64
2022/01/24 08:39:30;;;;;;;0.00;0.00;;;;;;;;;;5071014;28;20036;-65
2022/01/24 08:45:41;;;;;;;0.00;0.00;;;;;;;;;;5070563;28;20054;-63
2022/01/24 08:47:06;;;;;;;0.00;0.00;;;;;;;;;;5069662;28;20388;-64
2022/01/24 08:49:32;;;;;;;0.00;0.00;;;;;;;;;;5071424;28;20020;-63
2022/01/24 08:51:59;;;;;;;0.00;0.00;;;;;;;;;;5070619;28;20025;-62
2022/01/24 08:54:25;;;;;;;0.00;0.00;;;;;;;;;;5070303;28;20024;-63
2022/01/24 08:56:50;;;;;;;0.00;0.00;;;;;;;;;;5070352;28;20089;-63
2022/01/24 08:59:15;;;;;;;0.00;0.00;;;;;;;;;;5070655;28;20052;-63
2022/01/24 09:01:43;;;;;;;0.00;0.00;;;;;;;;;;5070912;28;20060;-63
2022/01/24 09:04:09;;;;;;;0.00;0.00;;;;;;;;;;5070394;28;20027;-63
2022/01/24 09:06:34;;;;;;;0.00;0.00;;;;;;;;;;5071032;28;20024;-63
2022/01/24 09:09:03;;;;;;;0.00;0.00;;;;;;;;;;5070527;28;20040;-63
2022/01/24 09:11:29;;;;;;;;;;;;;;;;;;5071057;28;20064;-63
2022/01/24 09:13:54;;;;;;;0.00;0.00;;;;;;;;;;5069681;28;19951;-63
2022/01/24 09:16:19;;;;;;;0.00;0.00;;;;;;;;;;5070255;28;20078;-64
2022/01/24 09:18:45;;;;;;;0.00;0.00;;;;;;;;;;5070799;28;20027;-63
2022/01/24 09:21:10;;;;;;;0.00;0.00;;;;;;;;;;5070145;28;20026;-63
2022/01/24 09:23:35;;;;;;;0.45;0.45;;;;;;;;;;5069847;28;20046;-65
2022/01/24 09:26:01;;;;;;;0.30;0.30;;;;;;;;;;5069542;28;20361;-65
2022/01/24 09:28:26;;;;;;;0.32;0.08;;;;;;;;;;5070269;28;20029;-62
2022/01/24 09:30:51;;;;;;;0.00;0.00;;;;;;;;;;5070520;28;20070;-66
2022/01/24 09:33:17;;;;;;;0.00;0.00;;;;;;;;;;5069540;28;20023;-63
2022/01/24 09:35:43;;;;;;;0.00;0.00;;;;;;;;;;5065863;28;20780;-61
2022/01/24 09:38:08;;;;;;;1.48;1.48;;;;;;;;;;5066548;28;20042;-65
2022/01/24 09:40:34;;;;;;;0.00;0.00;;;;;;;;;;5067692;28;20469;-62
2022/01/24 09:42:59;;;;;;;0.00;0.00;;;;;;;;;;5065981;28;20524;-62
2022/01/24 09:45:24;;;;;;;0.05;0.05;;;;;;;;;;5062958;28;20016;-62
2022/01/24 09:47:50;;;;;;;0.47;0.47;;;;;;;;;;5067412;28;20028;-62
2022/01/24 09:50:16;;;;;;;0.00;0.00;;;;;;;;;;5067365;28;20417;-61
2022/01/24 09:52:44;;;;;;;0.00;0.00;;;;;;;;;;5066344;28;20055;-61
2022/01/24 09:55:09;;;;;;;0.00;0.00;;;;;;;;;;5063540;28;20025;-61
2022/01/24 09:57:34;;;;;;;0.00;0.00;;;;;;;;;;5064088;28;20446;-61
2022/01/24 10:00:01;;;;;;;0.10;0.10;;;;;;;;;;5067935;28;20097;-60
2022/01/24 10:02:26;;;;;;;0.00;0.00;;;;;;;;;;5067974;28;20024;-61
2022/01/24 10:04:52;;;;;;;0.00;0.00;;;;;;;;;;5066806;28;20086;-63
2022/01/24 10:07:17;;;;;;;0.10;0.10;;;;;;;;;;5065660;28;20036;-62
2022/01/24 10:09:47;;;;;;;0.00;0.00;;;;;;;;;;5063957;28;20051;-62
2022/01/24 10:17:32;;;;;;;0.00;0.00;;;;;;;;;;5067950;28;20040;-62
2022/01/24 10:20:14;;;;;;;0.00;0.00;;;;;;;;;;5065509;28;20473;-62
2022/01/24 10:22:39;;;;;;;0.00;0.00;;;;;;;;;;5064975;28;20036;-63
2022/01/24 10:25:08;;;;;;;0.00;0.00;;;;;;;;;;5064675;28;20025;-63
2022/01/24 10:27:33;;;;;;;5.35;2.00;;;;;;;;;;5064865;28;20027;-63
2022/01/24 10:30:00;;;;;;;0.00;0.00;;;;;;;;;;5067361;28;20025;-63
2022/01/24 10:32:43;;;;;;;0.00;0.00;;;;;;;;;;5066187;28;20377;-64
2022/01/24 10:35:22;;;;;;;0.00;0.00;;;;;;;;;;5066031;28;20560;-63
2022/01/24 10:37:50;;;;;;;0.00;0.00;;;;;;;;;;5065837;28;20046;-63
2022/01/24 10:43:25;;;;;;;0.00;0.00;;;;;;;;;;5062044;28;20032;-61
2022/01/24 10:45:52;;;;;;;0.00;0.00;;;;;;;;;;5066787;28;20032;-62
2022/01/24 10:48:21;;;;;;;0.17;0.17;;;;;;;;;;5066602;28;20023;-63
2022/01/24 10:50:47;;;;;;;0.00;0.00;;;;;;;;;;5066373;28;20027;-62
2022/01/24 10:53:14;;;;;;;0.00;0.00;;;;;;;;;;5064337;28;20471;-62
2022/01/24 10:55:40;;;;;;;0.00;0.00;;;;;;;;;;5064471;28;20024;-63
2022/01/24 10:58:07;;;;;;;0.00;0.00;;;;;;;;;;5063853;28;20021;-62
2022/01/24 11:00:34;;;;;;;0.00;0.00;;;;;;;;;;5064908;28;20035;-62
2022/01/24 11:03:00;;;;;;;0.00;0.00;;;;;;;;;;5067483;28;20052;-63
2022/01/24 11:05:25;;;;;;;0.17;0.17;;;;;;;;;;5062771;28;20020;-62
2022/01/24 11:07:52;;;;;;;0.35;0.35;;;;;;;;;;5064090;28;20408;-63
2022/01/24 11:10:17;;;;;;;1.15;1.00;;;;;;;;;;5061718;28;20147;-64
2022/01/24 11:12:42;;;;;;;0.00;0.00;;;;;;;;;;5062448;28;20159;-63
2022/01/24 11:15:10;;;;;;;0.00;0.00;;;;;;;;;;5067106;28;20020;-63
2022/01/24 11:17:35;;;;;;;0.00;0.00;;;;;;;;;;5066183;28;20024;-61
2022/01/24 11:20:02;;;;;;;0.00;0.00;;;;;;;;;;5063233;28;20032;-63
2022/01/24 11:22:30;;;;;;;0.00;0.00;;;;;;;;;;5063209;28;20408;-63
2022/01/24 11:25:02;;;;;;;0.00;0.00;;;;;;;;;;5064677;28;20043;-62
2022/01/24 11:27:27;;;;;;;0.00;0.00;;;;;;;;;;5061736;28;20359;-62
2022/01/24 11:29:54;;;;;;;0.03;0.03;;;;;;;;;;5066248;28;20021;-62
2022/01/24 11:32:25;;;;;;;0.00;0.00;;;;;;;;;;5064225;28;20033;-62
2022/01/24 11:34:51;;;;;;;0.70;0.20;;;;;;;;;;5063993;28;20113;-63
2022/01/24 11:37:32;;;;;;;0.00;0.00;;;;;;;;;;5064255;28;20040;-63
2022/01/24 11:39:57;;;;;;;0.00;0.00;;;;;;;;;;5063157;28;20202;-63
2022/01/24 11:42:30;;;;;;;0.00;0.00;;;;;;;;;;5060665;28;20091;-63
2022/01/24 11:44:58;;;;;;;0.98;0.98;;;;;;;;;;5066187;28;20024;-62
2022/01/24 11:47:26;;;;;;;1.30;0.90;;;;;;;;;;5062751;28;20119;-63
2022/01/24 11:49:54;;;;;;;0.98;0.98;;;;;;;;;;5064029;28;20052;-63
2022/01/24 11:52:20;;;;;;;0.20;0.20;;;;;;;;;;5067173;28;20009;-63
2022/01/24 11:55:13;;;;;;;0.00;0.00;;;;;;;;;;5067735;28;20024;-63
2022/01/24 11:57:40;;;;;;;0.00;0.00;;;;;;;;;;5068267;28;20469;-62
2022/01/24 12:00:05;;;;;;;0.28;0.28;;;;;;;;;;5067937;28;20020;-63
2022/01/24 12:02:42;;;;;;;0.00;0.00;;;;;;;;;;5067627;28;20032;-62
2022/01/24 12:05:11;;;;;;;0.95;0.95;;;;;;;;;;5066549;28;20021;-63
2022/01/24 12:07:44;;;;;;;0.00;0.00;;;;;;;;;;5071004;28;20115;-61
2022/01/24 12:10:26;;;;;;;0.00;0.00;;;;;;;;;;5070337;28;20028;-63
2022/01/24 12:13:00;;;;;;;0.00;0.00;;;;;;;;;;5069501;28;20028;-62
2022/01/24 12:15:37;;;;;;;0.10;0.10;;;;;;;;;;5070370;28;20020;-63
2022/01/24 12:18:24;;;;;;;0.08;0.00;;;;;;;;;;5069980;28;20070;-61
2022/01/24 12:21:09;;;;;;;0.00;0.00;;;;;;;;;;5038886;28;20101;-63
2022/01/24 12:23:36;;;;;;;0.57;0.55;;;;;;;;;;5070971;28;20037;-62
2022/01/24 12:26:05;;;;;;;0.00;0.00;;;;;;;;;;5067174;28;20051;-62
2022/01/24 12:28:31;;;;;;;;;;;;;;;;;;5068838;28;20016;-62
2022/01/24 12:30:57;;;;;;;0.00;0.00;;;;;;;;;;5069742;28;19916;-63
2022/01/24 12:33:48;;;;;;;0.00;0.00;;;;;;;;;;5069135;28;20013;-62
2022/01/24 12:36:15;;;;;;;0.05;0.05;;;;;;;;;;5045741;28;20075;-62
2022/01/24 12:38:51;;;;;;;0.00;0.00;;;;;;;;;;5067564;28;20534;-62
2022/01/24 12:41:22;;;;;;;0.40;0.40;;;;;;;;;;5066778;28;20040;-63
2022/01/24 12:44:12;;;;;;;0.00;0.00;;;;;;;;;;5069509;28;20074;-63
2022/01/24 12:46:37;;;;;;;0.00;0.00;;;;;;;;;;5068390;28;20073;-63
2022/01/24 12:49:04;;;;;;;0.68;0.68;;;;;;;;;;5070520;28;20016;-62
2022/01/24 12:51:31;;;;;;;0.00;0.00;;;;;;;;;;5070624;28;20446;-63
2022/01/24 12:53:56;;;;;;;0.00;0.00;;;;;;;;;;5070952;28;20028;-63
2022/01/24 12:56:26;;;;;;;0.00;0.00;;;;;;;;;;5070256;28;20028;-63
2022/01/24 12:58:51;;;;;;;0.00;0.00;;;;;;;;;;5068618;28;20028;-63
2022/01/24 13:01:22;;;;;;;0.10;0.10;;;;;;;;;;5069513;28;20379;-62
2022/01/24 13:03:52;;;;;;;0.00;0.00;;;;;;;;;;5070612;28;21503;-63
2022/01/24 13:06:18;;;;;;;0.00;0.00;;;;;;;;;;5070226;28;20389;-63
2022/01/24 13:08:52;;;;;;;0.00;0.00;;;;;;;;;;5071002;28;20055;-61
2022/01/24 13:11:18;;;;;;;0.00;0.00;;;;;;;;;;5065157;28;20032;-62
2022/01/24 13:14:01;;;;;;;0.00;0.00;;;;;;;;;;5068940;28;20032;-63
2022/01/24 13:22:14;;;;;;;0.00;0.00;;;;;;;;;;5069497;28;20051;-62
2022/01/24 13:24:40;;;;;;;0.00;0.00;;;;;;;;;;5069617;28;20085;-63
2022/01/24 13:27:05;;;;;;;0.10;0.10;;;;;;;;;;5069650;28;20025;-61
2022/01/24 13:29:37;;;;;;;0.00;0.00;;;;;;;;;;5069923;28;20032;-62
2022/01/24 13:32:03;;;;;;;0.00;0.00;;;;;;;;;;5067734;28;20027;-63
2022/01/24 13:34:28;;;;;;;0.00;0.00;;;;;;;;;;5068243;28;20029;-63
2022/01/24 13:36:53;;;;;;;0.00;0.00;;;;;;;;;;5069733;28;20029;-63
2022/01/24 13:39:18;;;;;;;0.00;0.00;;;;;;;;;;5069150;28;20559;-62
2022/01/24 13:41:44;;;;;;;0.00;0.00;;;;;;;;;;5069325;28;20409;-63
2022/01/24 13:44:12;;;;;;;0.10;0.10;;;;;;;;;;5068022;28;20035;-63
2022/01/24 13:46:39;;;;;;;0.00;0.00;;;;;;;;;;5069594;28;20049;-64
2022/01/24 13:49:21;;;;;;;0.00;0.00;;;;;;;;;;5069765;28;20020;-62
2022/01/24 13:51:49;;;;;;;0.00;0.00;;;;;;;;;;5067810;28;20024;-64
2022/01/24 13:54:18;;;;;;;0.13;0.13;;;;;;;;;;5064330;28;20365;-64
2022/01/24 13:56:43;;;;;;;0.55;0.55;;;;;;;;;;5065521;28;20069;-63
2022/01/24 13:59:15;;;;;;;0.00;0.00;;;;;;;;;;5068507;28;20028;-64
2022/01/24 14:01:50;;;;;;;0.00;0.00;;;;;;;;;;5062749;28;20071;-63
2022/01/24 14:04:23;;;;;;;0.00;0.00;;;;;;;;;;5063459;28;20365;-62
2022/01/24 14:06:53;;;;;;;0.00;0.00;;;;;;;;;;5064135;28;20101;-64
2022/01/24 14:09:18;;;;;;;;;;;;;;;;;;5067189;28;20037;-63
2022/01/24 14:11:45;;;;;;;0.00;0.00;;;;;;;;;;5064943;28;19913;-64
2022/01/24 14:14:14;;;;;;;0.00;0.00;;;;;;;;;;5065155;28;20023;-64
2022/01/24 14:16:54;;;;;;;0.00;0.00;;;;;;;;;;5063868;28;20900;-64
2022/01/24 14:19:29;;;;;;;0.00;0.00;;;;;;;;;;5066359;28;20389;-63
2022/01/24 14:22:11;;;;;;;0.30;0.30;;;;;;;;;;5066425;28;20043;-63
2022/01/24 14:24:46;;;;;;;0.73;0.73;;;;;;;;;;5065169;28;20027;-64
2022/01/24 14:27:12;;;;;;;0.00;0.00;;;;;;;;;;5063200;28;20043;-63
2022/01/24 14:29:39;;;;;;;0.00;0.00;;;;;;;;;;5061589;28;20036;-63
2022/01/24 14:32:11;;;;;;;1.20;1.10;;;;;;;;;;5064211;28;20031;-62
2022/01/24 14:34:37;;;;;;;0.55;0.55;;;;;;;;;;5061610;28;20028;-63
2022/01/24 14:37:06;;;;;;;0.52;0.52;;;;;;;;;;5061685;28;20820;-63
2022/01/24 14:39:32;;;;;;;0.00;0.00;;;;;;;;;;5064001;28;20028;-62
2022/01/24 14:41:58;;;;;;;0.10;0.10;;;;;;;;;;5064072;28;20388;-63
2022/01/24 14:47:07;;;;;;;1.55;1.45;;;;;;;;;;5063549;28;20028;-61
2022/01/24 14:49:34;;;;;;;0.00;0.00;;;;;;;;;;5060629;28;20020;-63
2022/01/24 14:52:02;;;;;;;0.17;0.17;;;;;;;;;;5063239;28;20013;-62
2022/01/24 14:54:28;;;;;;;0.00;0.00;;;;;;;;;;5065345;28;20456;-62
2022/01/24 14:56:55;;;;;;;0.57;0.57;;;;;;;;;;5063279;28;20721;-63
2022/01/24 14:59:21;;;;;;;0.98;0.30;;;;;;;;;;5060922;28;20024;-63
2022/01/24 15:01:46;;;;;;;0.00;0.00;;;;;;;;;;5058071;28;20060;-63
2022/01/24 15:04:12;;;;;;;0.00;0.00;;;;;;;;;;5059167;28;20113;-62
2022/01/24 15:06:38;;;;;;;0.00;0.00;;;;;;;;;;5061720;28;20025;-63
2022/01/24 15:09:08;;;;;;;0.00;0.00;;;;;;;;;;5065592;28;20036;-63
2022/01/24 15:11:35;;;;;;;0.00;0.00;;;;;;;;;;5063014;28;20031;-62
2022/01/24 15:14:05;;;;;;;0.15;0.15;;;;;;;;;;5062575;28;20020;-62
2022/01/24 15:16:42;;;;;;;0.95;0.57;;;;;;;;;;5065126;28;20112;-63
2022/01/24 15:27:12;;;;;;;0.00;0.00;;;;;;;;;;5063231;28;20028;-62
2022/01/24 15:29:38;;;;;;;0.00;0.00;;;;;;;;;;5066976;28;20492;-61
2022/01/24 15:32:04;;;;;;;0.00;0.00;;;;;;;;;;5066153;28;20021;-62
2022/01/24 15:34:30;;;;;;;0.00;0.00;;;;;;;;;;5064758;28;20027;-62
2022/01/24 15:36:56;;;;;;;0.00;0.00;;;;;;;;;;5067855;28;20016;-62
2022/01/24 15:39:21;;;;;;;0.00;0.00;;;;;;;;;;5067263;28;20127;-62
2022/01/24 15:41:54;;;;;;;0.45;0.28;;;;;;;;;;5070760;28;20041;-62
2022/01/24 15:49:40;;;;;;;0.00;0.00;;;;;;;;;;5040017;28;20032;-62
2022/01/24 15:52:06;;;;;;;0.10;0.10;;;;;;;;;;5068782;28;20651;-62
2022/01/24 15:54:32;;;;;;;0.00;0.00;;;;;;;;;;5069797;28;20028;-62
2022/01/24 15:59:41;;;;;;;0.00;0.00;;;;;;;;;;5069857;28;20047;-61
2022/01/24 16:02:06;;;;;;;0.00;0.00;;;;;;;;;;5072453;28;20385;-64
2022/01/24 16:04:32;;;;;;;0.00;0.00;;;;;;;;;;5071479;28;20028;-61
2022/01/24 16:06:57;;;;;;;0.00;0.00;;;;;;;;;;5071320;28;20095;-61
2022/01/24 16:09:22;;;;;;;0.00;0.00;;;;;;;;;;5070886;28;20056;-61
2022/01/24 16:11:48;;;;;;;0.00;0.00;;;;;;;;;;5071005;28;20025;-61
2022/01/24 16:14:14;;;;;;;0.43;0.43;;;;;;;;;;5071782;28;20025;-60
2022/01/24 16:16:40;;;;;;;0.55;0.55;;;;;;;;;;5069836;28;20020;-62
2022/01/24 16:19:05;;;;;;;0.10;0.10;;;;;;;;;;5070815;28;20023;-62
2022/01/24 16:26:51;;;;;;;0.28;0.28;;;;;;;;;;5045694;28;20048;-62
2022/01/24 16:29:16;;;;;;;0.00;0.00;;;;;;;;;;5070156;28;20016;-61
2022/01/24 16:31:41;;;;;;;0.00;0.00;;;;;;;;;;5070973;28;20027;-62
2022/01/24 16:34:07;;;;;;;0.00;0.00;;;;;;;;;;5071367;28;20456;-61
2022/01/24 16:36:33;;;;;;;0.00;0.00;;;;;;;;;;5069181;28;20445;-61
2022/01/24 16:39:00;;;;;;;0.00;0.00;;;;;;;;;;5071550;28;20028;-62
2022/01/24 16:41:35;;;;;;;0.00;0.00;;;;;;;;;;5067099;28;20548;-61
2022/01/24 16:49:21;;;;;;;0.00;0.00;;;;;;;;;;5070957;28;20032;-62
2022/01/24 16:51:47;;;;;;;0.10;0.10;;;;;;;;;;5068546;28;20025;-63
2022/01/24 16:54:13;;;;;;;0.00;0.00;;;;;;;;;;5071158;28;20024;-63
2022/01/24 16:56:39;;;;;;;0.00;0.00;;;;;;;;;;5069719;28;20439;-63
2022/01/24 16:59:04;;;;;;;0.00;0.00;;;;;;;;;;5067294;28;20028;-63
2022/01/24 17:01:32;;;;;;;0.00;0.00;;;;;;;;;;5068054;28;20378;-63
2022/01/24 17:03:58;;;;;;;0.00;0.00;;;;;;;;;;5069664;28;20039;-63
2022/01/24 17:06:25;;;;;;;0.03;0.03;;;;;;;;;;5069067;28;20033;-63
2022/01/24 17:08:50;;;;;;;0.00;0.00;;;;;;;;;;5070845;28;20037;-63
2022/01/24 17:11:15;;;;;;;0.00;0.00;;;;;;;;;;5069621;28;20158;-64
2022/01/24 17:13:43;;;;;;;0.00;0.00;;;;;;;;;;5069547;28;20031;-64
2022/01/24 17:16:08;;;;;;;0.00;0.00;;;;;;;;;;5069897;28;20029;-63
2022/01/24 17:18:33;;;;;;;0.00;0.00;;;;;;;;;;5070082;28;20039;-64